createdAt,value
2018-06-20T00:00:11.374Z,75.63
2018-06-20T00:02:41.302Z,76.16
2018-06-20T00:05:11.371Z,77.00
2018-06-20T00:07:41.292Z,78.72
2018-06-20T00:10:11.253Z,78.07
2018-06-20T00:12:41.187Z,79.50
2018-06-20T00:15:11.046Z,78.90
2018-06-20T00:17:40.959Z,77.72
2018-06-20T00:20:10.921Z,76.89
2018-06-20T00:22:40.887Z,75.32
2018-06-20T00:25:10.772Z,75.08
2018-06-20T00:27:40.631Z,74.95
2018-06-20T00:30:10.392Z,74.78
2018-06-20T00:32:40.206Z,74.48
2018-06-20T00:35:10.251Z,74.02
2018-06-20T00:37:40.211Z,74.40
2018-06-20T00:40:10.135Z,74.74
2018-06-20T00:42:40.028Z,74.41
2018-06-20T00:45:10.013Z,77.68
2018-06-20T00:47:40.012Z,78.88
2018-06-20T00:50:09.957Z,78.46
2018-06-20T00:52:39.829Z,78.52
2018-06-20T00:55:09.685Z,76.85
2018-06-20T00:57:39.498Z,76.44
2018-06-20T01:00:09.435Z,76.27
2018-06-20T01:02:39.455Z,74.93
2018-06-20T01:05:09.330Z,74.76
2018-06-20T01:07:39.391Z,74.80
2018-06-20T01:10:09.372Z,74.47
2018-06-20T01:12:39.167Z,74.23
2018-06-20T01:15:09.216Z,74.97
2018-06-20T01:17:39.107Z,75.70
2018-06-20T01:20:09.142Z,76.39
2018-06-20T01:22:38.932Z,75.23
2018-06-20T01:25:08.946Z,75.29
2018-06-20T01:27:38.925Z,76.11
2018-06-20T01:30:09.019Z,76.32
2018-06-20T01:32:38.818Z,74.75
2018-06-20T01:35:08.675Z,77.12
2018-06-20T01:37:38.498Z,78.62
2018-06-20T01:40:08.357Z,78.06
2018-06-20T01:42:38.396Z,78.30
2018-06-20T01:45:08.419Z,77.59
2018-06-20T01:47:38.257Z,76.27
2018-06-20T01:50:08.096Z,76.97
2018-06-20T01:52:38.166Z,77.05
2018-06-20T01:55:08.163Z,76.66
2018-06-20T01:57:38.155Z,76.36
2018-06-20T02:00:08.243Z,75.62
2018-06-20T02:02:38.239Z,77.81
2018-06-20T02:05:08.029Z,78.15
2018-06-20T02:07:37.978Z,77.73
2018-06-20T02:10:07.859Z,79.14
2018-06-20T02:12:37.838Z,78.42
2018-06-20T02:15:07.756Z,79.39
2018-06-20T02:17:37.638Z,78.21
2018-06-20T02:20:07.971Z,77.02
2018-06-20T02:22:38.248Z,76.10
2018-06-20T02:25:08.477Z,76.42
2018-06-20T02:27:38.510Z,76.63
2018-06-20T02:30:08.258Z,80.21
2018-06-20T02:32:38.346Z,77.70
2018-06-20T02:35:08.388Z,77.05
2018-06-20T02:37:38.299Z,79.83
2018-06-20T02:40:08.281Z,80.17
2018-06-20T02:42:38.150Z,79.97
2018-06-20T02:45:07.925Z,79.38
2018-06-20T02:47:42.623Z,78.53
2018-06-20T02:50:13.712Z,77.77
2018-06-20T02:52:43.705Z,78.65
2018-06-20T02:55:13.555Z,77.90
2018-06-20T02:57:43.555Z,76.89
2018-06-20T03:00:13.427Z,76.85
2018-06-20T03:02:43.462Z,81.31
2018-06-20T03:05:13.357Z,80.79
2018-06-20T03:07:43.365Z,78.85
2018-06-20T03:10:13.220Z,78.54
2018-06-20T03:12:43.063Z,77.37
2018-06-20T03:15:12.942Z,76.97
2018-06-20T03:17:42.827Z,76.91
2018-06-20T03:20:12.699Z,80.34
2018-06-20T03:22:42.611Z,80.12
2018-06-20T03:25:12.535Z,77.17
2018-06-20T03:27:42.359Z,78.48
2018-06-20T03:30:12.425Z,77.83
2018-06-20T03:32:42.351Z,79.26
2018-06-20T03:35:12.351Z,78.69
2018-06-20T03:37:42.239Z,78.20
2018-06-20T03:40:12.175Z,79.23
2018-06-20T03:42:42.260Z,77.13
2018-06-20T03:45:12.342Z,77.37
2018-06-20T03:47:42.275Z,76.96
2018-06-20T03:50:12.445Z,77.41
2018-06-20T03:52:42.389Z,76.97
2018-06-20T03:55:12.351Z,76.87
2018-06-20T03:57:42.243Z,76.39
2018-06-20T04:00:12.346Z,76.82
2018-06-20T04:02:42.935Z,75.88
2018-06-20T04:05:12.963Z,76.41
2018-06-20T04:07:43.221Z,76.00
2018-06-20T04:10:13.226Z,76.78
2018-06-20T04:12:43.293Z,76.17
2018-06-20T04:15:13.211Z,76.13
2018-06-20T04:17:43.164Z,76.44
2018-06-20T04:20:13.051Z,77.30
2018-06-20T04:22:42.953Z,77.33
2018-06-20T04:25:12.952Z,81.95
2018-06-20T04:27:42.852Z,80.74
2018-06-20T04:30:13.284Z,79.46
2018-06-20T04:32:43.183Z,78.40
2018-06-20T04:35:13.329Z,77.78
2018-06-20T04:37:43.352Z,77.66
2018-06-20T04:40:13.377Z,77.32
2018-06-20T04:42:43.473Z,76.50
2018-06-20T04:45:13.363Z,76.97
2018-06-20T04:47:43.615Z,75.89
2018-06-20T04:50:13.665Z,77.08
2018-06-20T04:52:43.659Z,78.55
2018-06-20T04:55:13.837Z,78.14
2018-06-20T04:57:43.907Z,78.55
2018-06-20T05:00:13.825Z,77.31
2018-06-20T05:02:44.428Z,78.78
2018-06-20T05:05:14.560Z,77.87
2018-06-20T05:07:44.630Z,79.38
2018-06-20T05:10:14.662Z,78.92
2018-06-20T05:12:44.750Z,78.63
2018-06-20T05:15:15.210Z,79.06
2018-06-20T05:17:45.171Z,80.16
2018-06-20T05:20:15.200Z,79.09
2018-06-20T05:22:45.147Z,78.78
2018-06-20T05:25:15.076Z,78.61
2018-06-20T05:27:45.150Z,77.71
2018-06-20T05:30:15.072Z,77.12
2018-06-20T05:32:45.098Z,77.38
2018-06-20T05:35:15.046Z,78.35
2018-06-20T05:37:45.029Z,78.39
2018-06-20T05:40:14.937Z,76.97
2018-06-20T05:42:44.810Z,77.77
2018-06-20T05:45:14.855Z,77.33
2018-06-20T05:47:44.817Z,76.69
2018-06-20T05:50:14.867Z,76.53
2018-06-20T05:52:45.089Z,77.14
2018-06-20T05:55:15.209Z,77.39
2018-06-20T05:57:45.196Z,76.66
2018-06-20T06:00:15.180Z,77.03
2018-06-20T06:02:45.416Z,76.84
2018-06-20T06:05:15.349Z,76.65
2018-06-20T06:07:45.482Z,76.04
2018-06-20T06:10:16.196Z,78.26
2018-06-20T06:12:46.808Z,78.09
2018-06-20T06:15:17.294Z,77.23
2018-06-20T06:17:48.191Z,79.30
2018-06-20T06:20:18.052Z,78.13
2018-06-20T06:22:48.040Z,77.90
2018-06-20T06:25:18.256Z,78.60
2018-06-20T06:27:48.198Z,77.29
2018-06-20T06:30:18.383Z,78.08
2018-06-20T06:32:48.311Z,76.62
2018-06-20T06:35:18.256Z,77.76
2018-06-20T06:37:48.302Z,77.16
2018-06-20T06:40:18.062Z,77.34
2018-06-20T06:42:48.153Z,76.66
2018-06-20T06:45:18.139Z,77.46
2018-06-20T06:47:48.053Z,76.85
2018-06-20T06:50:18.403Z,76.76
2018-06-20T06:52:48.329Z,76.93
2018-06-20T06:55:18.320Z,76.93
2018-06-20T06:57:48.227Z,77.66
2018-06-20T07:00:18.088Z,76.33
2018-06-20T07:02:47.966Z,75.70
2018-06-20T07:05:18.045Z,76.87
2018-06-20T07:07:47.951Z,76.33
2018-06-20T07:10:17.851Z,77.29
2018-06-20T07:12:47.875Z,75.75
2018-06-20T07:15:17.966Z,74.92
2018-06-20T07:17:48.013Z,75.42
2018-06-20T07:20:18.122Z,76.01
2018-06-20T07:22:48.008Z,74.90
2018-06-20T07:25:18.011Z,74.54
2018-06-20T07:27:47.880Z,74.91
2018-06-20T07:30:18.063Z,75.21
2018-06-20T07:32:47.959Z,75.30
2018-06-20T07:35:18.032Z,74.29
2018-06-20T07:37:47.884Z,75.73
2018-06-20T07:40:17.803Z,74.87
2018-06-20T07:42:47.682Z,74.88
2018-06-20T07:45:17.723Z,75.46
2018-06-20T07:47:47.589Z,74.58
2018-06-20T07:50:17.742Z,74.21
2018-06-20T07:52:48.073Z,74.25
2018-06-20T07:55:18.197Z,73.69
2018-06-20T07:57:48.167Z,73.59
2018-06-20T08:00:23.245Z,72.60
2018-06-20T08:03:17.099Z,71.82
2018-06-20T08:06:52.983Z,72.51
2018-06-20T08:11:35.209Z,71.97
2018-06-20T08:14:10.326Z,70.94
2018-06-20T08:16:46.224Z,71.99
2018-06-20T08:19:21.210Z,71.59
2018-06-20T08:21:51.896Z,70.51
2018-06-20T08:24:22.009Z,70.34
2018-06-20T08:26:52.014Z,70.71
2018-06-20T08:29:21.946Z,71.06
2018-06-20T08:31:51.878Z,71.12
2018-06-20T08:34:21.724Z,71.43
2018-06-20T08:36:52.897Z,70.89
2018-06-20T08:39:22.709Z,70.32
2018-06-20T08:41:53.047Z,70.08
2018-06-20T08:44:23.097Z,70.43
2018-06-20T08:46:53.247Z,70.38
2018-06-20T08:51:59.486Z,69.82
2018-06-20T08:54:29.866Z,68.85
2018-06-20T08:57:00.015Z,69.76
2018-06-20T08:59:30.030Z,68.65
2018-06-20T09:01:59.970Z,66.90
2018-06-20T09:04:34.976Z,66.72
2018-06-20T09:07:10.052Z,67.02
2018-06-20T09:09:45.014Z,66.79
2018-06-20T09:12:21.665Z,64.20
2018-06-20T09:14:56.941Z,64.54
2018-06-20T09:17:32.175Z,65.39
2018-06-20T09:20:02.375Z,63.98
2018-06-20T09:22:33.123Z,63.96
2018-06-20T09:25:04.115Z,64.72
2018-06-20T09:27:34.180Z,64.34
2018-06-20T09:30:06.047Z,64.07
2018-06-20T09:32:36.130Z,64.57
2018-06-20T09:35:08.539Z,64.90
2018-06-20T09:37:38.709Z,64.40
2018-06-20T09:40:08.901Z,63.27
2018-06-20T09:42:40.088Z,63.97
2018-06-20T09:45:10.538Z,63.68
2018-06-20T09:47:41.418Z,64.21
2018-06-20T09:50:17.300Z,64.53
2018-06-20T09:52:48.053Z,64.29
2018-06-20T09:57:57.452Z,63.30
2018-06-20T10:00:33.459Z,62.19
2018-06-20T10:03:15.137Z,62.61
2018-06-20T10:05:51.035Z,61.39
2018-06-20T10:08:26.178Z,61.36
2018-06-20T10:11:01.419Z,61.98
2018-06-20T10:13:35.777Z,62.17
2018-06-20T10:16:06.322Z,60.49
2018-06-20T10:18:45.650Z,60.19
2018-06-20T10:24:03.638Z,59.83
2018-06-20T10:26:35.072Z,60.67
2018-06-20T10:29:23.141Z,59.18
2018-06-20T10:31:53.550Z,59.58
2018-06-20T10:34:23.904Z,57.82
2018-06-20T10:36:54.102Z,58.15
2018-06-20T10:39:24.385Z,59.73
2018-06-20T10:42:00.539Z,60.10
2018-06-20T10:44:32.432Z,60.37
2018-06-20T10:47:07.478Z,58.48
2018-06-20T10:49:39.295Z,60.04
2018-06-20T10:52:14.108Z,58.75
2018-06-20T10:54:47.642Z,59.57
2018-06-20T10:57:23.534Z,59.50
2018-06-20T10:59:58.388Z,58.64
2018-06-20T11:02:48.209Z,57.57
2018-06-20T11:05:23.224Z,59.62
2018-06-20T11:08:00.792Z,59.30
2018-06-20T11:10:36.449Z,58.02
2018-06-20T11:13:11.948Z,57.19
2018-06-20T11:15:41.967Z,56.34
2018-06-20T11:18:11.911Z,55.59
2018-06-20T11:20:46.730Z,54.94
2018-06-20T11:23:16.650Z,54.75
2018-06-20T11:25:46.507Z,55.38
2018-06-20T11:28:17.060Z,52.83
2018-06-20T11:30:47.522Z,54.05
2018-06-20T11:33:17.887Z,53.73
2018-06-20T11:35:48.248Z,52.33
2018-06-20T11:38:23.857Z,51.61
2018-06-20T11:40:54.105Z,52.59
2018-06-20T11:43:24.210Z,53.47
2018-06-20T11:46:15.650Z,53.65
2018-06-20T11:51:45.065Z,54.37
2018-06-20T11:54:15.123Z,52.74
2018-06-20T11:56:57.352Z,52.72
2018-06-20T11:59:33.526Z,53.82
2018-06-20T12:02:10.345Z,52.87
2018-06-20T12:04:45.269Z,50.32
2018-06-20T12:07:24.292Z,52.51
2018-06-20T12:09:59.585Z,52.19
2018-06-20T12:12:34.411Z,50.37
2018-06-20T12:15:09.668Z,50.17
2018-06-20T12:17:44.565Z,50.38
2018-06-20T12:20:23.685Z,51.21
2018-06-20T12:22:59.019Z,50.36
2018-06-20T12:25:33.939Z,50.09
2018-06-20T12:30:50.731Z,49.42
2018-06-20T12:33:30.996Z,51.76
2018-06-20T12:36:06.401Z,50.42
2018-06-20T12:38:41.394Z,50.20
2018-06-20T12:41:16.423Z,49.02
2018-06-20T12:43:51.112Z,47.75
2018-06-20T12:46:25.660Z,48.98
2018-06-20T12:49:00.894Z,50.02
2018-06-20T12:51:30.783Z,48.90
2018-06-20T12:54:00.567Z,48.19
2018-06-20T12:56:47.909Z,48.28
2018-06-20T12:59:17.962Z,49.10
2018-06-20T13:01:48.201Z,47.36
2018-06-20T13:04:19.635Z,47.00
2018-06-20T13:06:49.589Z,47.94
2018-06-20T13:09:20.466Z,46.72
2018-06-20T13:11:50.836Z,47.95
2018-06-20T13:14:21.522Z,45.50
2018-06-20T13:16:51.720Z,46.82
2018-06-20T13:19:21.831Z,46.15
2018-06-20T13:22:03.380Z,48.02
2018-06-20T13:24:33.665Z,47.05
2018-06-20T13:27:03.921Z,47.10
2018-06-20T13:29:33.953Z,47.17
2018-06-20T13:32:08.899Z,45.19
2018-06-20T13:34:43.727Z,44.64
2018-06-20T13:37:18.722Z,45.17
2018-06-20T13:39:54.030Z,46.13
2018-06-20T13:42:28.866Z,45.66
2018-06-20T13:45:03.008Z,46.62
2018-06-20T13:47:38.008Z,46.14
2018-06-20T13:50:07.884Z,45.39
2018-06-20T13:52:44.380Z,45.25
2018-06-20T13:55:14.324Z,45.93
2018-06-20T13:57:44.397Z,47.12
2018-06-20T14:00:14.500Z,46.18
2018-06-20T14:02:48.737Z,44.90
2018-06-20T14:05:18.733Z,46.37
2018-06-20T14:07:53.537Z,45.82
2018-06-20T14:10:23.591Z,46.05
2018-06-20T14:12:53.686Z,43.00
2018-06-20T14:15:37.713Z,44.69
2018-06-20T14:18:30.482Z,42.93
2018-06-20T14:21:09.737Z,44.46
2018-06-20T14:23:43.287Z,43.11
2018-06-20T14:26:13.338Z,42.15
2018-06-20T14:28:43.779Z,42.65
2018-06-20T14:31:18.843Z,43.66
2018-06-20T14:33:53.907Z,44.07
2018-06-20T14:36:33.397Z,43.86
2018-06-20T14:39:08.350Z,41.84
2018-06-20T14:41:47.470Z,40.87
2018-06-20T14:44:19.807Z,42.13
2018-06-20T14:46:49.929Z,40.79
2018-06-20T14:49:25.169Z,40.54
2018-06-20T14:51:57.968Z,40.55
2018-06-20T14:54:28.448Z,42.09
2018-06-20T14:56:58.660Z,39.84
2018-06-20T14:59:28.878Z,41.50
2018-06-20T15:02:07.422Z,40.34
2018-06-20T15:04:38.753Z,40.09
2018-06-20T15:07:10.396Z,39.31
2018-06-20T15:12:44.976Z,39.56
2018-06-20T15:15:25.580Z,40.15
2018-06-20T15:17:56.565Z,41.05
2018-06-20T15:20:26.771Z,41.76
2018-06-20T15:22:56.758Z,41.28
2018-06-20T15:25:38.548Z,42.76
2018-06-20T15:28:13.883Z,38.80
2018-06-20T15:30:49.175Z,41.27
2018-06-20T15:38:18.827Z,42.44
2018-06-20T15:40:48.737Z,39.26
2018-06-20T15:43:18.910Z,41.12
2018-06-20T15:45:53.248Z,40.74
2018-06-20T15:48:25.974Z,39.87
2018-06-20T15:50:57.401Z,38.63
2018-06-20T15:53:30.700Z,40.55
2018-06-20T15:56:02.944Z,38.26
2018-06-20T15:58:51.386Z,39.08
2018-06-20T16:01:36.975Z,40.67
2018-06-20T16:04:07.040Z,39.43
2018-06-20T16:06:39.496Z,39.72
2018-06-20T16:09:14.579Z,41.55
2018-06-20T16:11:44.553Z,41.10
2018-06-20T16:14:26.260Z,42.00
2018-06-20T16:16:56.104Z,41.36
2018-06-20T16:19:31.213Z,38.72
2018-06-20T16:22:07.674Z,41.83
2018-06-20T16:24:42.579Z,38.65
2018-06-20T16:29:18.301Z,40.10
2018-06-20T16:31:48.093Z,40.96
2018-06-20T16:34:18.326Z,39.18
2018-06-20T16:36:49.987Z,41.22
2018-06-20T16:39:20.351Z,38.25
2018-06-20T16:41:50.735Z,39.83
2018-06-20T16:44:20.480Z,37.04
2018-06-20T16:46:50.312Z,38.68
2018-06-20T16:49:20.199Z,43.49
2018-06-20T16:51:50.448Z,37.34
2018-06-20T16:54:20.263Z,40.30
2018-06-20T16:56:50.202Z,39.32
2018-06-20T16:59:25.520Z,37.97
2018-06-20T17:02:00.628Z,37.79
2018-06-20T17:04:32.845Z,39.01
2018-06-20T17:07:03.140Z,38.08
2018-06-20T17:09:33.021Z,38.74
2018-06-20T17:12:18.677Z,38.39
2018-06-20T17:14:55.467Z,40.44
2018-06-20T17:17:30.367Z,40.08
2018-06-20T17:20:05.127Z,40.08
2018-06-20T17:22:41.786Z,40.42
2018-06-20T17:25:17.184Z,39.85
2018-06-20T17:27:47.304Z,39.22
2018-06-20T17:30:17.477Z,41.95
2018-06-20T17:32:53.680Z,42.29
2018-06-20T17:35:49.046Z,40.34
2018-06-20T17:38:39.132Z,42.90
2018-06-20T17:41:11.656Z,42.85
2018-06-20T17:44:10.604Z,41.12
2018-06-20T17:46:50.027Z,42.58
2018-06-20T17:49:20.111Z,41.69
2018-06-20T17:51:49.978Z,41.20
2018-06-20T17:54:45.028Z,43.71
2018-06-20T18:00:16.959Z,41.96
2018-06-20T18:03:06.855Z,40.58
2018-06-20T18:05:48.328Z,42.51
2018-06-20T18:08:36.905Z,41.11
2018-06-20T18:11:13.125Z,40.93
2018-06-20T18:13:48.042Z,42.44
2018-06-20T18:16:39.092Z,41.36
2018-06-20T18:19:09.295Z,43.00
2018-06-20T18:21:39.723Z,42.98
2018-06-20T18:24:10.143Z,43.10
2018-06-20T18:26:40.183Z,43.26
2018-06-20T18:29:10.284Z,45.04
2018-06-20T18:31:54.416Z,42.43
2018-06-20T18:34:29.717Z,43.85
2018-06-20T18:36:59.775Z,43.38
2018-06-20T18:39:36.018Z,44.39
2018-06-20T18:42:06.323Z,46.05
2018-06-20T18:44:38.659Z,42.01
2018-06-20T18:49:23.123Z,43.79
2018-06-20T18:51:53.179Z,44.21
2018-06-20T18:54:29.277Z,45.93
2018-06-20T18:57:01.234Z,48.43
2018-06-20T18:59:38.333Z,47.49
2018-06-20T19:02:13.403Z,48.00
2018-06-20T19:04:49.374Z,46.64
2018-06-20T19:07:24.491Z,48.44
2018-06-20T19:09:57.455Z,47.90
2018-06-20T19:12:27.696Z,50.11
2018-06-20T19:14:58.096Z,49.46
2018-06-20T19:17:28.033Z,49.68
2018-06-20T19:19:58.112Z,51.46
2018-06-20T19:22:28.575Z,50.85
2018-06-20T19:24:58.423Z,50.45
2018-06-20T19:27:28.527Z,51.71
2018-06-20T19:29:58.840Z,52.52
2018-06-20T19:32:28.952Z,52.17
2018-06-20T19:34:58.875Z,52.78
2018-06-20T19:37:29.020Z,53.32
2018-06-20T19:39:59.062Z,53.63
2018-06-20T19:42:29.255Z,52.46
2018-06-20T19:44:59.405Z,53.68
2018-06-20T19:47:29.311Z,52.90
2018-06-20T19:49:59.268Z,51.81
2018-06-20T19:52:29.225Z,50.88
2018-06-20T19:54:59.348Z,52.72
2018-06-20T19:57:29.823Z,52.72
2018-06-20T19:59:59.871Z,52.04
2018-06-20T20:02:29.868Z,52.61
2018-06-20T20:04:59.780Z,52.76
2018-06-20T20:07:29.719Z,54.22
2018-06-20T20:09:59.751Z,53.80
2018-06-20T20:12:29.735Z,55.34
2018-06-20T20:14:59.816Z,54.32
2018-06-20T20:17:29.763Z,52.76
2018-06-20T20:19:59.816Z,54.55
2018-06-20T20:22:29.778Z,54.88
2018-06-20T20:24:59.695Z,55.07
2018-06-20T20:27:29.771Z,55.78
2018-06-20T20:29:59.799Z,53.81
2018-06-20T20:32:29.838Z,55.40
2018-06-20T20:34:59.814Z,56.32
2018-06-20T20:37:29.923Z,57.06
2018-06-20T20:39:59.903Z,56.89
2018-06-20T20:42:29.811Z,56.42
2018-06-20T20:44:59.818Z,56.21
2018-06-20T20:47:29.867Z,57.17
2018-06-20T20:49:59.832Z,55.94
2018-06-20T20:52:29.763Z,56.77
2018-06-20T20:54:59.810Z,55.98
2018-06-20T20:57:29.811Z,56.91
2018-06-20T20:59:59.758Z,57.51
2018-06-20T21:02:29.824Z,56.81
2018-06-20T21:04:59.765Z,58.36
2018-06-20T21:07:29.732Z,60.56
2018-06-20T21:09:59.611Z,58.54
2018-06-20T21:12:29.453Z,58.38
2018-06-20T21:14:59.338Z,59.29
2018-06-20T21:17:29.494Z,57.57
2018-06-20T21:19:59.415Z,58.18
2018-06-20T21:22:29.453Z,60.93
2018-06-20T21:24:59.528Z,59.15
2018-06-20T21:27:29.503Z,60.91
2018-06-20T21:29:59.371Z,60.16
2018-06-20T21:32:29.436Z,61.20
2018-06-20T21:34:59.453Z,60.89
2018-06-20T21:37:29.398Z,60.08
2018-06-20T21:39:59.254Z,59.41
2018-06-20T21:42:29.228Z,59.50
2018-06-20T21:44:59.345Z,59.37
2018-06-20T21:47:29.355Z,60.65
2018-06-20T21:49:59.239Z,61.89
2018-06-20T21:52:29.332Z,61.68
2018-06-20T21:54:59.278Z,62.40
2018-06-20T21:57:29.216Z,61.20
2018-06-20T21:59:59.243Z,63.19
2018-06-20T22:02:29.197Z,62.38
2018-06-20T22:04:59.111Z,61.76
2018-06-20T22:07:29.158Z,60.79
2018-06-20T22:09:59.077Z,60.54
2018-06-20T22:12:29.117Z,60.82
2018-06-20T22:14:59.070Z,62.10
2018-06-20T22:17:29.079Z,63.04
2018-06-20T22:19:58.930Z,61.14
2018-06-20T22:22:28.867Z,60.68
2018-06-20T22:24:58.860Z,61.50
2018-06-20T22:27:28.795Z,61.04
2018-06-20T22:29:58.803Z,60.08
2018-06-20T22:32:28.906Z,60.92
2018-06-20T22:34:58.827Z,62.37
2018-06-20T22:37:28.731Z,64.71
2018-06-20T22:39:58.607Z,64.38
2018-06-20T22:42:28.490Z,66.56
2018-06-20T22:44:58.520Z,66.54
2018-06-20T22:47:28.436Z,65.40
2018-06-20T22:49:58.296Z,64.18
2018-06-20T22:52:29.082Z,62.69
2018-06-20T22:54:58.966Z,63.29
2018-06-20T22:57:28.811Z,63.49
2018-06-20T22:59:58.715Z,62.15
2018-06-20T23:02:28.611Z,62.04
2018-06-20T23:04:58.675Z,63.63
2018-06-20T23:07:28.668Z,64.23
2018-06-20T23:09:58.583Z,63.05
2018-06-20T23:12:28.418Z,62.34
2018-06-20T23:14:58.409Z,65.07
2018-06-20T23:17:28.343Z,65.80
2018-06-20T23:19:58.162Z,67.46
2018-06-20T23:22:28.232Z,66.63
2018-06-20T23:24:58.258Z,66.08
2018-06-20T23:27:28.214Z,66.80
2018-06-20T23:29:58.226Z,65.92
2018-06-20T23:32:28.108Z,64.54
2018-06-20T23:34:58.034Z,65.50
2018-06-20T23:37:27.943Z,64.32
2018-06-20T23:39:58.017Z,64.27
2018-06-20T23:42:27.994Z,63.85
2018-06-20T23:44:57.911Z,63.81
2018-06-20T23:47:28.684Z,63.79
2018-06-20T23:49:58.681Z,64.10
2018-06-20T23:52:28.598Z,65.86
2018-06-20T23:54:58.575Z,65.85
2018-06-20T23:57:28.391Z,64.77
2018-06-20T23:59:58.267Z,64.41
